SWA1080 KLAX-KSJC
Flight info
| Callsign | SWA1080 |
|---|---|
| Flight time | 0h 55m |
| Altitude | 36000 |
| Route | SUMMR2 SCTRR TROXX SILCN6 |
| Aircraft | B737/M-SADE2E3GIJ4RWZ/LB1D1 |
Departure
| Time | 2026-04-22 22:05 |
|---|---|
| Airport | Los Angeles International Airport (KLAX) |
Arrival
| Time | 2026-04-22 23:01 |
|---|---|
| Airport | Norman Y. Mineta San Jose International Airport (KSJC) |
| Time | Latitude | Longitude | Altitude | Speed | Heading |
|---|---|---|---|---|---|
| 2026-04-22 21:21 | 33.94692 | -118.40062 | 93 ft | 0 kts | 264° |
| 2026-04-22 21:56 | 33.94692 | -118.40059 | 92 ft | 4 kts | 258° |
| 2026-04-22 21:56 | 33.94691 | -118.40041 | 92 ft | 4 kts | 281° |
| 2026-04-22 21:57 | 33.94681 | -118.40013 | 92 ft | 4 kts | 322° |
| 2026-04-22 21:57 | 33.94667 | -118.40004 | 91 ft | 1 kts | 345° |
| 2026-04-22 21:57 | 33.94665 | -118.40003 | 91 ft | 0 kts | 345° |
| 2026-04-22 22:00 | 33.94666 | -118.40004 | 92 ft | 1 kts | 345° |
| 2026-04-22 22:01 | 33.94685 | -118.40008 | 92 ft | 4 kts | 351° |
| 2026-04-22 22:01 | 33.94725 | -118.40011 | 92 ft | 7 kts | 360° |
| 2026-04-22 22:01 | 33.94783 | -118.40006 | 92 ft | 10 kts | 4° |
| 2026-04-22 22:01 | 33.94839 | -118.40027 | 91 ft | 0 kts | 308° |
| 2026-04-22 22:02 | 33.94846 | -118.40039 | 92 ft | 3 kts | 308° |
| 2026-04-22 22:02 | 33.94860 | -118.40060 | 92 ft | 3 kts | 308° |
| 2026-04-22 22:02 | 33.94875 | -118.40078 | 95 ft | 3 kts | 324° |
| 2026-04-22 22:02 | 33.94895 | -118.40084 | 93 ft | 3 kts | 358° |
| 2026-04-22 22:03 | 33.94912 | -118.40073 | 94 ft | 3 kts | 47° |
| 2026-04-22 22:03 | 33.94918 | -118.40050 | 93 ft | 3 kts | 78° |
| 2026-04-22 22:03 | 33.94922 | -118.40021 | 92 ft | 5 kts | 82° |
| 2026-04-22 22:03 | 33.94927 | -118.39971 | 92 ft | 7 kts | 82° |
| 2026-04-22 22:04 | 33.94956 | -118.39914 | 93 ft | 9 kts | 27° |
| 2026-04-22 22:04 | 33.95001 | -118.39910 | 92 ft | 10 kts | 352° |
| 2026-04-22 22:04 | 33.95038 | -118.39977 | 94 ft | 11 kts | 270° |
| 2026-04-22 22:04 | 33.95005 | -118.40317 | 97 ft | 75 kts | 263° |
| 2026-04-22 22:05 | 33.94948 | -118.40882 | 98 ft | 123 kts | 263° |
| 2026-04-22 22:05 | 33.94789 | -118.42541 | 649 ft | 160 kts | 263° |
| 2026-04-22 22:05 | 33.94659 | -118.43837 | 1681 ft | 152 kts | 263° |
| 2026-04-22 22:05 | 33.94579 | -118.44699 | 2251 ft | 158 kts | 263° |
| 2026-04-22 22:06 | 33.94384 | -118.46641 | 2773 ft | 196 kts | 264° |
| 2026-04-22 22:06 | 33.94302 | -118.47801 | 2921 ft | 217 kts | 268° |
| 2026-04-22 22:06 | 33.94243 | -118.49733 | 3290 ft | 242 kts | 269° |
| 2026-04-22 22:06 | 33.94173 | -118.51808 | 4023 ft | 252 kts | 267° |
| 2026-04-22 22:07 | 33.93955 | -118.54622 | 4763 ft | 254 kts | 266° |
| 2026-04-22 22:07 | 33.93835 | -118.56054 | 4957 ft | 256 kts | 266° |
| 2026-04-22 22:07 | 33.93658 | -118.58218 | 5002 ft | 264 kts | 265° |
| 2026-04-22 22:07 | 33.93482 | -118.60415 | 5884 ft | 262 kts | 266° |
| 2026-04-22 22:08 | 33.93309 | -118.62583 | 6976 ft | 259 kts | 267° |
| 2026-04-22 22:08 | 33.93140 | -118.64734 | 7840 ft | 264 kts | 266° |
| 2026-04-22 22:08 | 33.92968 | -118.66940 | 8869 ft | 266 kts | 266° |
| 2026-04-22 22:08 | 33.92796 | -118.69161 | 9900 ft | 267 kts | 266° |
| 2026-04-22 22:09 | 33.92621 | -118.71422 | 10650 ft | 280 kts | 266° |
| 2026-04-22 22:09 | 33.92432 | -118.73881 | 10875 ft | 309 kts | 265° |
| 2026-04-22 22:09 | 33.92223 | -118.76566 | 11098 ft | 335 kts | 265° |
| 2026-04-22 22:09 | 33.92000 | -118.79416 | 11670 ft | 345 kts | 265° |
| 2026-04-22 22:10 | 33.91771 | -118.82313 | 12180 ft | 348 kts | 265° |
| 2026-04-22 22:10 | 33.91647 | -118.85219 | 13156 ft | 347 kts | 271° |
| 2026-04-22 22:10 | 33.91745 | -118.88122 | 14090 ft | 348 kts | 273° |
| 2026-04-22 22:10 | 33.91886 | -118.91040 | 14896 ft | 350 kts | 273° |
| 2026-04-22 22:11 | 33.92005 | -118.93936 | 15742 ft | 351 kts | 272° |
| 2026-04-22 22:11 | 33.92102 | -118.96881 | 16624 ft | 352 kts | 272° |
| 2026-04-22 22:11 | 33.92223 | -118.99830 | 17504 ft | 353 kts | 277° |
| 2026-04-22 22:11 | 33.92844 | -119.02704 | 18331 ft | 358 kts | 290° |
| 2026-04-22 22:12 | 33.94030 | -119.05355 | 19026 ft | 363 kts | 298° |
| 2026-04-22 22:12 | 33.95398 | -119.07941 | 19637 ft | 369 kts | 298° |
| 2026-04-22 22:12 | 33.96799 | -119.10552 | 20234 ft | 374 kts | 298° |
| 2026-04-22 22:12 | 33.98197 | -119.13209 | 20846 ft | 377 kts | 298° |
| 2026-04-22 22:13 | 33.99596 | -119.15907 | 21477 ft | 381 kts | 297° |
| 2026-04-22 22:13 | 34.01134 | -119.18540 | 22016 ft | 391 kts | 307° |
| 2026-04-22 22:13 | 34.03224 | -119.20721 | 22606 ft | 403 kts | 317° |
| 2026-04-22 22:13 | 34.05514 | -119.22691 | 23239 ft | 405 kts | 318° |
| 2026-04-22 22:14 | 34.07842 | -119.24642 | 23768 ft | 409 kts | 318° |
| 2026-04-22 22:14 | 34.10193 | -119.26613 | 24171 ft | 413 kts | 318° |
| 2026-04-22 22:14 | 34.12557 | -119.28608 | 24632 ft | 416 kts | 318° |
| 2026-04-22 22:14 | 34.14927 | -119.30625 | 25095 ft | 418 kts | 318° |
| 2026-04-22 22:15 | 34.17300 | -119.32658 | 25554 ft | 420 kts | 317° |
| 2026-04-22 22:15 | 34.19690 | -119.34714 | 25988 ft | 422 kts | 317° |
| 2026-04-22 22:15 | 34.22056 | -119.36756 | 26436 ft | 424 kts | 317° |
| 2026-04-22 22:15 | 34.24459 | -119.38830 | 26927 ft | 425 kts | 317° |
| 2026-04-22 22:16 | 34.26876 | -119.40920 | 27321 ft | 428 kts | 317° |
| 2026-04-22 22:16 | 34.29302 | -119.43019 | 27675 ft | 431 kts | 317° |
| 2026-04-22 22:16 | 34.31748 | -119.45136 | 28023 ft | 434 kts | 317° |
| 2026-04-22 22:16 | 34.34211 | -119.47269 | 28375 ft | 436 kts | 317° |
| 2026-04-22 22:17 | 34.36685 | -119.49413 | 28732 ft | 438 kts | 317° |
| 2026-04-22 22:17 | 34.39161 | -119.51558 | 29197 ft | 437 kts | 317° |
| 2026-04-22 22:17 | 34.41634 | -119.53705 | 29811 ft | 434 kts | 317° |
| 2026-04-22 22:17 | 34.44046 | -119.55895 | 30374 ft | 431 kts | 315° |
| 2026-04-22 22:18 | 34.46405 | -119.58116 | 30875 ft | 428 kts | 315° |
| 2026-04-22 22:18 | 34.48711 | -119.60315 | 31380 ft | 426 kts | 314° |
| 2026-04-22 22:18 | 34.51066 | -119.62566 | 31889 ft | 424 kts | 314° |
| 2026-04-22 22:18 | 34.53350 | -119.64743 | 32371 ft | 423 kts | 314° |
| 2026-04-22 22:19 | 34.55665 | -119.66943 | 32798 ft | 422 kts | 314° |
| 2026-04-22 22:19 | 34.57977 | -119.69137 | 33228 ft | 421 kts | 314° |
| 2026-04-22 22:19 | 34.60285 | -119.71322 | 33650 ft | 420 kts | 314° |
| 2026-04-22 22:19 | 34.62588 | -119.73502 | 34034 ft | 419 kts | 314° |
| 2026-04-22 22:20 | 34.64888 | -119.75679 | 34435 ft | 418 kts | 314° |
| 2026-04-22 22:20 | 34.67171 | -119.77840 | 34889 ft | 413 kts | 314° |
| 2026-04-22 22:20 | 34.69426 | -119.79974 | 35275 ft | 410 kts | 313° |
| 2026-04-22 22:20 | 34.71679 | -119.82111 | 35605 ft | 409 kts | 313° |
| 2026-04-22 22:21 | 34.73917 | -119.84238 | 35962 ft | 409 kts | 313° |
| 2026-04-22 22:21 | 34.76166 | -119.86377 | 36146 ft | 412 kts | 313° |
| 2026-04-22 22:21 | 34.78424 | -119.88529 | 36150 ft | 412 kts | 313° |
| 2026-04-22 22:22 | 34.82913 | -119.92799 | 36139 ft | 407 kts | 313° |
| 2026-04-22 22:22 | 34.87323 | -119.96999 | 36146 ft | 403 kts | 312° |
| 2026-04-22 22:23 | 34.91739 | -120.01217 | 36162 ft | 403 kts | 313° |
| 2026-04-22 22:23 | 34.96151 | -120.05436 | 36182 ft | 403 kts | 312° |
| 2026-04-22 22:24 | 35.00559 | -120.09656 | 36181 ft | 403 kts | 312° |
| 2026-04-22 22:24 | 35.04966 | -120.13881 | 36178 ft | 403 kts | 312° |
| 2026-04-22 22:25 | 35.09371 | -120.18110 | 36178 ft | 403 kts | 312° |
| 2026-04-22 22:25 | 35.13747 | -120.22317 | 36191 ft | 403 kts | 312° |
| 2026-04-22 22:26 | 35.18159 | -120.26551 | 36193 ft | 404 kts | 313° |
| 2026-04-22 22:26 | 35.22667 | -120.30682 | 36205 ft | 405 kts | 314° |
| 2026-04-22 22:27 | 35.27199 | -120.34794 | 36194 ft | 405 kts | 314° |
| 2026-04-22 22:27 | 35.31718 | -120.38919 | 36208 ft | 405 kts | 313° |
| 2026-04-22 22:28 | 35.36227 | -120.43052 | 36201 ft | 404 kts | 313° |
| 2026-04-22 22:28 | 35.40692 | -120.47156 | 36205 ft | 403 kts | 313° |
| 2026-04-22 22:29 | 35.45183 | -120.51289 | 36207 ft | 403 kts | 313° |
| 2026-04-22 22:29 | 35.49671 | -120.55425 | 36232 ft | 403 kts | 313° |
| 2026-04-22 22:30 | 35.54199 | -120.59503 | 36222 ft | 407 kts | 316° |
| 2026-04-22 22:30 | 35.58995 | -120.63266 | 36229 ft | 408 kts | 318° |
| 2026-04-22 22:31 | 35.63816 | -120.66962 | 36280 ft | 408 kts | 317° |
| 2026-04-22 22:31 | 35.68599 | -120.70684 | 35842 ft | 414 kts | 317° |
| 2026-04-22 22:31 | 35.71022 | -120.72587 | 35330 ft | 409 kts | 317° |
| 2026-04-22 22:32 | 35.73375 | -120.74422 | 35373 ft | 397 kts | 317° |
| 2026-04-22 22:32 | 35.78056 | -120.78117 | 35329 ft | 406 kts | 317° |
| 2026-04-22 22:32 | 35.80460 | -120.80025 | 35063 ft | 413 kts | 317° |
| 2026-04-22 22:33 | 35.82872 | -120.81930 | 34870 ft | 410 kts | 317° |
| 2026-04-22 22:33 | 35.85260 | -120.83808 | 34621 ft | 404 kts | 317° |
| 2026-04-22 22:33 | 35.87614 | -120.85660 | 34334 ft | 399 kts | 316° |
| 2026-04-22 22:33 | 35.89952 | -120.87510 | 34111 ft | 401 kts | 316° |
| 2026-04-22 22:34 | 35.92275 | -120.89355 | 33635 ft | 403 kts | 317° |
| 2026-04-22 22:34 | 35.94646 | -120.91237 | 32741 ft | 405 kts | 317° |
| 2026-04-22 22:34 | 35.96996 | -120.93091 | 32528 ft | 391 kts | 317° |
| 2026-04-22 22:34 | 35.99258 | -120.94873 | 32341 ft | 379 kts | 316° |
| 2026-04-22 22:35 | 36.01432 | -120.96624 | 32018 ft | 368 kts | 314° |
| 2026-04-22 22:35 | 36.03524 | -120.98532 | 31498 ft | 379 kts | 312° |
| 2026-04-22 22:35 | 36.05619 | -121.00555 | 30943 ft | 384 kts | 312° |
| 2026-04-22 22:35 | 36.07708 | -121.02588 | 30403 ft | 380 kts | 312° |
| 2026-04-22 22:36 | 36.09788 | -121.04599 | 29780 ft | 376 kts | 312° |
| 2026-04-22 22:36 | 36.11843 | -121.06573 | 29205 ft | 372 kts | 313° |
| 2026-04-22 22:36 | 36.13880 | -121.08522 | 28653 ft | 368 kts | 313° |
| 2026-04-22 22:36 | 36.15895 | -121.10447 | 28180 ft | 364 kts | 313° |
| 2026-04-22 22:37 | 36.17865 | -121.12328 | 27644 ft | 361 kts | 313° |
| 2026-04-22 22:37 | 36.19848 | -121.14222 | 27120 ft | 359 kts | 313° |
| 2026-04-22 22:37 | 36.21822 | -121.16108 | 26608 ft | 357 kts | 314° |
| 2026-04-22 22:37 | 36.23787 | -121.17988 | 26098 ft | 357 kts | 314° |
| 2026-04-22 22:38 | 36.25750 | -121.19866 | 25600 ft | 357 kts | 314° |
| 2026-04-22 22:38 | 36.27713 | -121.21745 | 25099 ft | 356 kts | 314° |
| 2026-04-22 22:38 | 36.29676 | -121.23625 | 24598 ft | 357 kts | 315° |
| 2026-04-22 22:38 | 36.31645 | -121.25512 | 24059 ft | 358 kts | 315° |
| 2026-04-22 22:39 | 36.33615 | -121.27400 | 23512 ft | 358 kts | 315° |
| 2026-04-22 22:39 | 36.35584 | -121.29287 | 22951 ft | 357 kts | 316° |
| 2026-04-22 22:39 | 36.37540 | -121.31166 | 22417 ft | 353 kts | 316° |
| 2026-04-22 22:39 | 36.39465 | -121.33018 | 21905 ft | 348 kts | 316° |
| 2026-04-22 22:40 | 36.41362 | -121.34845 | 21413 ft | 342 kts | 316° |
| 2026-04-22 22:40 | 36.43233 | -121.36651 | 20919 ft | 339 kts | 316° |
| 2026-04-22 22:40 | 36.45067 | -121.38423 | 20459 ft | 338 kts | 316° |
| 2026-04-22 22:40 | 36.46939 | -121.40231 | 19979 ft | 336 kts | 316° |
| 2026-04-22 22:41 | 36.48783 | -121.42013 | 19527 ft | 336 kts | 316° |
| 2026-04-22 22:41 | 36.50648 | -121.43712 | 19104 ft | 337 kts | 322° |
| 2026-04-22 22:41 | 36.52670 | -121.45167 | 18741 ft | 335 kts | 326° |
| 2026-04-22 22:41 | 36.54724 | -121.46520 | 18374 ft | 333 kts | 326° |
| 2026-04-22 22:42 | 36.56765 | -121.47847 | 17981 ft | 329 kts | 326° |
| 2026-04-22 22:42 | 36.58786 | -121.49176 | 17623 ft | 328 kts | 326° |
| 2026-04-22 22:42 | 36.60791 | -121.50512 | 17271 ft | 327 kts | 326° |
| 2026-04-22 22:42 | 36.62797 | -121.51864 | 16927 ft | 328 kts | 326° |
| 2026-04-22 22:43 | 36.64801 | -121.53222 | 16570 ft | 329 kts | 326° |
| 2026-04-22 22:43 | 36.66812 | -121.54590 | 16243 ft | 329 kts | 327° |
| 2026-04-22 22:43 | 36.68816 | -121.55955 | 15894 ft | 328 kts | 327° |
| 2026-04-22 22:43 | 36.70824 | -121.57325 | 15541 ft | 328 kts | 327° |
| 2026-04-22 22:44 | 36.72820 | -121.58687 | 15196 ft | 326 kts | 327° |
| 2026-04-22 22:44 | 36.74800 | -121.60038 | 14766 ft | 323 kts | 327° |
| 2026-04-22 22:44 | 36.76760 | -121.61377 | 14320 ft | 318 kts | 327° |
| 2026-04-22 22:44 | 36.78686 | -121.62693 | 13953 ft | 311 kts | 327° |
| 2026-04-22 22:45 | 36.80577 | -121.63986 | 13590 ft | 309 kts | 327° |
| 2026-04-22 22:45 | 36.82456 | -121.65273 | 13254 ft | 308 kts | 328° |
| 2026-04-22 22:45 | 36.84328 | -121.66556 | 12937 ft | 307 kts | 328° |
| 2026-04-22 22:45 | 36.86182 | -121.67828 | 12606 ft | 309 kts | 328° |
| 2026-04-22 22:46 | 36.88081 | -121.69131 | 12285 ft | 311 kts | 329° |
| 2026-04-22 22:46 | 36.89985 | -121.70439 | 11953 ft | 313 kts | 329° |
| 2026-04-22 22:46 | 36.91901 | -121.71754 | 11620 ft | 314 kts | 329° |
| 2026-04-22 22:46 | 36.93818 | -121.73072 | 11290 ft | 315 kts | 329° |
| 2026-04-22 22:47 | 36.95714 | -121.74374 | 10956 ft | 315 kts | 329° |
| 2026-04-22 22:47 | 36.97606 | -121.75675 | 10618 ft | 306 kts | 329° |
| 2026-04-22 22:47 | 36.99452 | -121.76944 | 10298 ft | 299 kts | 330° |
| 2026-04-22 22:47 | 37.01250 | -121.78182 | 10073 ft | 288 kts | 330° |
| 2026-04-22 22:48 | 37.02961 | -121.79359 | 10014 ft | 273 kts | 330° |
| 2026-04-22 22:48 | 37.04578 | -121.80471 | 9995 ft | 257 kts | 330° |
| 2026-04-22 22:48 | 37.06103 | -121.81517 | 9992 ft | 242 kts | 330° |
| 2026-04-22 22:48 | 37.07534 | -121.82500 | 9991 ft | 228 kts | 329° |
| 2026-04-22 22:49 | 37.08932 | -121.83460 | 9467 ft | 236 kts | 330° |
| 2026-04-22 22:49 | 37.10442 | -121.84501 | 8620 ft | 257 kts | 330° |
| 2026-04-22 22:49 | 37.12003 | -121.85575 | 8191 ft | 259 kts | 330° |
| 2026-04-22 22:49 | 37.13582 | -121.86657 | 7854 ft | 259 kts | 330° |
| 2026-04-22 22:50 | 37.15168 | -121.87742 | 7410 ft | 261 kts | 330° |
| 2026-04-22 22:50 | 37.16759 | -121.88830 | 7072 ft | 259 kts | 330° |
| 2026-04-22 22:50 | 37.18347 | -121.89916 | 6696 ft | 260 kts | 331° |
| 2026-04-22 22:50 | 37.19936 | -121.91005 | 6316 ft | 260 kts | 331° |
| 2026-04-22 22:51 | 37.21517 | -121.92087 | 6011 ft | 257 kts | 331° |
| 2026-04-22 22:51 | 37.23085 | -121.93162 | 5724 ft | 257 kts | 331° |
| 2026-04-22 22:51 | 37.24656 | -121.94240 | 5442 ft | 258 kts | 330° |
| 2026-04-22 22:51 | 37.26232 | -121.95321 | 5156 ft | 258 kts | 330° |
| 2026-04-22 22:52 | 37.27807 | -121.96403 | 4889 ft | 258 kts | 330° |
| 2026-04-22 22:52 | 37.28846 | -121.97116 | 4696 ft | 258 kts | 330° |
| 2026-04-22 22:52 | 37.30804 | -121.98837 | 4326 ft | 257 kts | 317° |
| 2026-04-22 22:52 | 37.31690 | -121.99831 | 4126 ft | 257 kts | 316° |
| 2026-04-22 22:53 | 37.32858 | -122.01496 | 3905 ft | 251 kts | 302° |
| 2026-04-22 22:53 | 37.33761 | -122.03340 | 3731 ft | 245 kts | 299° |
| 2026-04-22 22:53 | 37.34907 | -122.05738 | 3540 ft | 238 kts | 300° |
| 2026-04-22 22:53 | 37.35492 | -122.06939 | 3430 ft | 239 kts | 300° |
| 2026-04-22 22:54 | 37.36364 | -122.08713 | 3260 ft | 236 kts | 301° |
| 2026-04-22 22:54 | 37.37401 | -122.10271 | 3104 ft | 228 kts | 314° |
| 2026-04-22 22:54 | 37.38505 | -122.11583 | 2974 ft | 214 kts | 314° |
| 2026-04-22 22:54 | 37.39644 | -122.12718 | 2800 ft | 206 kts | 334° |
| 2026-04-22 22:55 | 37.40995 | -122.13094 | 2703 ft | 194 kts | 354° |
| 2026-04-22 22:55 | 37.42304 | -122.13101 | 2574 ft | 182 kts | 358° |
| 2026-04-22 22:55 | 37.44428 | -122.12021 | 2391 ft | 167 kts | 50° |
| 2026-04-22 22:56 | 37.45167 | -122.10872 | 2268 ft | 168 kts | 49° |
| 2026-04-22 22:56 | 37.45890 | -122.09737 | 2152 ft | 164 kts | 50° |
| 2026-04-22 22:56 | 37.46532 | -122.08597 | 2081 ft | 153 kts | 69° |
| 2026-04-22 22:56 | 37.46756 | -122.07319 | 1970 ft | 149 kts | 79° |
| 2026-04-22 22:57 | 37.46968 | -122.06037 | 1852 ft | 150 kts | 80° |
| 2026-04-22 22:57 | 37.46813 | -122.04789 | 1789 ft | 144 kts | 131° |
| 2026-04-22 22:57 | 37.46095 | -122.03940 | 1789 ft | 142 kts | 137° |
| 2026-04-22 22:57 | 37.45410 | -122.03089 | 1810 ft | 140 kts | 139° |
| 2026-04-22 22:58 | 37.44678 | -122.02249 | 1805 ft | 144 kts | 141° |
| 2026-04-22 22:58 | 37.43934 | -122.01422 | 1766 ft | 140 kts | 142° |
| 2026-04-22 22:58 | 37.43198 | -122.00610 | 1675 ft | 143 kts | 143° |
| 2026-04-22 22:58 | 37.42445 | -121.99782 | 1478 ft | 143 kts | 141° |
| 2026-04-22 22:59 | 37.41698 | -121.98960 | 1296 ft | 142 kts | 140° |
| 2026-04-22 22:59 | 37.40958 | -121.98146 | 1084 ft | 139 kts | 140° |
| 2026-04-22 22:59 | 37.40240 | -121.97356 | 910 ft | 137 kts | 140° |
| 2026-04-22 22:59 | 37.39521 | -121.96565 | 729 ft | 137 kts | 139° |
| 2026-04-22 23:00 | 37.38792 | -121.95768 | 525 ft | 142 kts | 139° |
| 2026-04-22 23:00 | 37.38050 | -121.94951 | 380 ft | 143 kts | 140° |
| 2026-04-22 23:00 | 37.37304 | -121.94128 | 163 ft | 140 kts | 137° |
| 2026-04-22 23:00 | 37.36605 | -121.93351 | 61 ft | 125 kts | 140° |
| 2026-04-22 23:01 | 37.36074 | -121.92774 | 59 ft | 73 kts | 139° |
| 2026-04-22 23:01 | 37.35851 | -121.92528 | 59 ft | 18 kts | 130° |
| 2026-04-22 23:01 | 37.35833 | -121.92381 | 60 ft | 17 kts | 71° |
| 2026-04-22 23:01 | 37.35903 | -121.92262 | 60 ft | 17 kts | 49° |
| 2026-04-22 23:02 | 37.35954 | -121.92197 | 62 ft | 6 kts | 26° |
| 2026-04-22 23:02 | 37.35991 | -121.92206 | 60 ft | 6 kts | 327° |
| 2026-04-22 23:02 | 37.36022 | -121.92238 | 56 ft | 6 kts | 320° |
| 2026-04-22 23:02 | 37.36051 | -121.92269 | 54 ft | 5 kts | 318° |
| 2026-04-22 23:03 | 37.36079 | -121.92301 | 58 ft | 6 kts | 318° |
| 2026-04-22 23:03 | 37.36115 | -121.92340 | 52 ft | 8 kts | 318° |
| 2026-04-22 23:03 | 37.36161 | -121.92391 | 54 ft | 10 kts | 318° |
| 2026-04-22 23:03 | 37.36215 | -121.92451 | 60 ft | 11 kts | 319° |
| 2026-04-22 23:04 | 37.36253 | -121.92493 | 61 ft | 8 kts | 319° |
| 2026-04-22 23:04 | 37.36307 | -121.92504 | 55 ft | 10 kts | 24° |
| 2026-04-22 23:04 | 37.36374 | -121.92527 | 56 ft | 12 kts | 321° |
| 2026-04-22 23:04 | 37.36400 | -121.92553 | 59 ft | 5 kts | 323° |
| 2026-04-22 23:05 | 37.36433 | -121.92545 | 55 ft | 6 kts | 53° |
| 2026-04-22 23:05 | 37.36462 | -121.92500 | 58 ft | 0 kts | 49° |
| 2026-04-22 23:05 | 37.36464 | -121.92498 | 59 ft | 0 kts | 49° |